createdAt,value
2019-04-06T00:03:49.130Z,25.25
2019-04-06T00:08:53.975Z,28.83
2019-04-06T00:13:58.740Z,25.25
2019-04-06T00:19:03.427Z,24.37
2019-04-06T00:24:08.534Z,28.80
2019-04-06T00:29:13.581Z,30.43
2019-04-06T00:34:20.142Z,30.37
2019-04-06T00:39:24.987Z,28.07
2019-04-06T00:44:30.341Z,29.50
2019-04-06T00:49:35.296Z,28.12
2019-04-06T00:54:40.030Z,34.70
2019-04-06T00:59:44.799Z,28.42
2019-04-06T01:04:49.848Z,30.72
2019-04-06T01:09:54.565Z,29.07
2019-04-06T01:14:59.331Z,27.77
2019-04-06T01:20:04.717Z,28.90
2019-04-06T01:25:10.091Z,24.67
2019-04-06T01:30:15.186Z,26.93
2019-04-06T01:35:20.454Z,27.45
2019-04-06T01:40:25.269Z,25.95
2019-04-06T01:45:30.551Z,25.70
2019-04-06T01:50:35.291Z,27.10
2019-04-06T01:55:40.348Z,26.15
2019-04-06T02:00:46.874Z,26.65
2019-04-06T02:05:51.748Z,26.90
2019-04-06T02:10:56.591Z,32.83
2019-04-06T02:16:01.458Z,26.07
2019-04-06T02:21:06.382Z,26.87
2019-04-06T02:26:11.226Z,25.62
2019-04-06T02:31:17.608Z,28.50
2019-04-06T02:36:29.823Z,29.12
2019-04-06T02:41:53.432Z,25.08
2019-04-06T02:47:00.017Z,25.80
2019-04-06T02:52:04.816Z,26.82
2019-04-06T02:57:09.811Z,25.12
2019-04-06T03:02:14.555Z,26.55
2019-04-06T03:07:19.271Z,25.35
2019-04-06T03:12:24.011Z,26.90
2019-04-06T03:17:28.858Z,24.63
2019-04-06T03:22:34.009Z,23.07
2019-04-06T03:27:38.900Z,20.48
2019-04-06T03:32:43.721Z,23.85
2019-04-06T03:37:48.463Z,23.67
2019-04-06T03:42:53.314Z,23.98
2019-04-06T03:47:59.245Z,25.23
2019-04-06T03:53:04.104Z,20.88
2019-04-06T03:58:09.069Z,26.97
2019-04-06T04:03:14.019Z,23.52
2019-04-06T04:08:18.762Z,27.17
2019-04-06T04:13:23.579Z,23.57
2019-04-06T04:18:28.550Z,27.20
2019-04-06T04:23:33.300Z,20.95
2019-04-06T04:28:38.256Z,26.35
2019-04-06T04:33:43.389Z,23.47
2019-04-06T04:38:48.460Z,31.40
2019-04-06T04:43:53.491Z,24.92
2019-04-06T04:49:00.079Z,28.12
2019-04-06T04:54:04.998Z,23.75
2019-04-06T04:59:09.873Z,26.12
2019-04-06T05:04:14.913Z,28.17
2019-04-06T05:09:19.656Z,24.15
2019-04-06T05:14:56.121Z,23.65
2019-04-06T05:20:01.309Z,27.80
2019-04-06T05:25:08.930Z,23.57
2019-04-06T05:30:14.645Z,24.77
2019-04-06T05:35:19.615Z,21.77
2019-04-06T05:40:24.398Z,22.55
2019-04-06T05:45:29.406Z,32.00
2019-04-06T05:50:34.777Z,22.58
2019-04-06T05:55:39.484Z,21.95
2019-04-06T06:00:44.554Z,22.02
2019-04-06T06:05:49.269Z,24.40
2019-04-06T06:10:54.344Z,21.97
2019-04-06T06:15:59.563Z,32.78
2019-04-06T06:21:04.455Z,36.95
2019-04-06T06:26:09.493Z,24.63
2019-04-06T06:31:14.249Z,27.10
2019-04-06T06:36:19.283Z,23.32
2019-04-06T06:41:24.338Z,27.77
2019-04-06T06:46:30.382Z,29.87
2019-04-06T06:51:35.429Z,25.17
2019-04-06T06:56:40.278Z,27.37
2019-04-06T07:01:45.024Z,25.25
2019-04-06T07:06:49.757Z,30.48
2019-04-06T07:11:54.859Z,22.75
2019-04-06T07:17:00.308Z,26.05
2019-04-06T07:22:05.135Z,27.00
2019-04-06T07:27:09.943Z,32.17
2019-04-06T07:32:14.942Z,23.77
2019-04-06T07:37:21.102Z,24.40
2019-04-06T07:42:25.846Z,24.07
2019-04-06T07:47:30.588Z,28.85
2019-04-06T07:52:36.318Z,26.48
2019-04-06T07:57:41.307Z,19.70
2019-04-06T08:02:46.176Z,20.88
2019-04-06T08:07:51.093Z,19.45
2019-04-06T08:12:55.765Z,20.55
2019-04-06T08:18:00.551Z,23.57
2019-04-06T08:23:05.482Z,20.60
2019-04-06T08:28:10.674Z,16.05
2019-04-06T08:33:15.499Z,24.47
2019-04-06T08:38:20.246Z,17.35
2019-04-06T08:43:24.879Z,21.07
2019-04-06T08:48:29.948Z,42.62
2019-04-06T08:53:36.399Z,25.88
2019-04-06T08:58:42.521Z,23.65
2019-04-06T09:03:47.553Z,76.80
2019-04-06T09:08:52.296Z,25.80
2019-04-06T09:13:57.038Z,35.98
2019-04-06T09:19:01.943Z,28.12
2019-04-06T09:24:06.705Z,40.25
2019-04-06T09:29:22.564Z,21.33
2019-04-06T09:34:19.078Z,29.45
2019-04-06T09:39:23.900Z,21.62
2019-04-06T09:44:46.487Z,13.35
2019-04-06T09:49:52.843Z,21.33
2019-04-06T09:54:59.761Z,25.05
2019-04-06T10:00:11.972Z,23.12
2019-04-06T10:05:35.146Z,14.50
2019-04-06T10:10:58.051Z,27.40
2019-04-06T10:16:07.671Z,26.42
2019-04-06T10:21:22.935Z,18.65
2019-04-06T10:26:29.754Z,18.42
2019-04-06T10:31:41.864Z,17.90
2019-04-06T10:37:00.098Z,25.60
2019-04-06T10:42:12.410Z,17.52
2019-04-06T10:47:19.953Z,36.65
2019-04-06T10:52:35.835Z,21.00
2019-04-06T10:57:44.587Z,24.72
2019-04-06T11:02:57.017Z,18.27
2019-04-06T11:08:21.539Z,52.65
2019-04-06T11:13:44.587Z,72.05
2019-04-06T11:19:07.148Z,154.55
2019-04-06T11:24:13.731Z,84.10
2019-04-06T11:29:20.176Z,18.25
2019-04-06T11:34:26.902Z,66.55
2019-04-06T11:39:51.759Z,33.15
2019-04-06T11:44:58.410Z,31.80
2019-04-06T11:50:11.233Z,17.05
2019-04-06T11:55:23.825Z,16.05
2019-04-06T12:00:49.444Z,22.95
2019-04-06T12:06:12.778Z,30.32
2019-04-06T12:11:20.892Z,23.45
2019-04-06T12:16:30.547Z,26.45
2019-04-06T12:21:53.517Z,12.03
2019-04-06T12:27:16.281Z,20.50
2019-04-06T12:32:28.881Z,21.80
2019-04-06T12:37:38.335Z,25.70
2019-04-06T12:43:01.228Z,29.37
2019-04-06T12:48:13.672Z,31.20
2019-04-06T12:53:20.108Z,28.00
2019-04-06T12:58:32.513Z,22.25
2019-04-06T13:03:39.240Z,19.45
2019-04-06T13:08:45.848Z,15.43
2019-04-06T13:13:52.671Z,16.67
2019-04-06T13:19:09.220Z,23.83
2019-04-06T13:24:19.073Z,13.83
2019-04-06T13:29:42.123Z,24.32
2019-04-06T13:35:06.981Z,22.25
2019-04-06T13:40:29.850Z,14.98
2019-04-06T13:45:36.440Z,14.73
2019-04-06T13:50:48.835Z,18.30
2019-04-06T13:55:55.440Z,17.15
2019-04-06T14:01:18.563Z,19.17
2019-04-06T14:06:31.401Z,15.90
2019-04-06T14:11:44.074Z,11.68
2019-04-06T14:17:06.944Z,15.75
2019-04-06T14:22:13.298Z,11.90
2019-04-06T14:27:25.107Z,18.10
2019-04-06T14:32:49.840Z,19.87
2019-04-06T14:37:59.065Z,20.00
2019-04-06T14:43:21.624Z,11.93
2019-04-06T14:48:36.833Z,14.83
2019-04-06T14:53:43.701Z,14.90
2019-04-06T14:58:52.750Z,20.17
2019-04-06T15:04:05.546Z,15.08
2019-04-06T15:09:28.367Z,14.98
2019-04-06T15:14:50.931Z,15.10
2019-04-06T15:20:13.490Z,13.32
2019-04-06T15:25:36.117Z,13.18
2019-04-06T15:30:42.942Z,17.62
2019-04-06T15:36:05.862Z,15.75
2019-04-06T15:41:31.009Z,18.87
2019-04-06T15:46:37.456Z,14.95
2019-04-06T15:51:53.521Z,23.95
2019-04-06T15:57:03.476Z,16.32
2019-04-06T16:02:09.934Z,18.07
2019-04-06T16:07:16.415Z,41.15
2019-04-06T16:12:34.902Z,155.75
2019-04-06T16:23:08.126Z,29.90
2019-04-06T16:28:20.700Z,194.72
2019-04-06T16:33:36.353Z,133.43
2019-04-06T16:38:49.187Z,171.10
2019-04-06T16:44:01.586Z,94.92
2019-04-06T16:49:08.290Z,295.97
2019-04-06T16:54:33.313Z,189.65
2019-04-06T16:59:51.586Z,214.15
2019-04-06T17:05:07.085Z,81.75
2019-04-06T17:10:13.663Z,92.37
2019-04-06T17:15:38.357Z,164.75
2019-04-06T17:20:50.794Z,59.77
2019-04-06T17:25:57.385Z,72.90
2019-04-06T17:31:16.246Z,53.33
2019-04-06T17:36:40.609Z,39.98
2019-04-06T17:41:49.777Z,46.83
2019-04-06T17:46:56.283Z,83.00
2019-04-06T17:52:19.389Z,117.90
2019-04-06T17:57:26.965Z,44.05
2019-04-06T18:02:48.316Z,35.63
2019-04-06T18:07:50.109Z,22.90
2019-04-06T18:13:05.768Z,29.98
2019-04-06T18:18:10.815Z,69.75
2019-04-06T18:23:15.562Z,37.00
2019-04-06T18:28:20.412Z,39.92
2019-04-06T18:33:27.084Z,35.15
2019-04-06T18:38:33.614Z,30.15
2019-04-06T18:43:38.530Z,52.10
2019-04-06T18:48:44.801Z,39.05
2019-04-06T18:53:50.313Z,36.25
2019-04-06T18:58:57.178Z,35.65
2019-04-06T19:04:02.405Z,32.05
2019-04-06T19:09:20.742Z,41.83
2019-04-06T19:14:15.923Z,48.23
2019-04-06T19:19:20.933Z,69.62
2019-04-06T19:24:25.978Z,40.03
2019-04-06T19:29:30.723Z,26.70
2019-04-06T19:34:35.443Z,28.55
2019-04-06T19:39:40.510Z,25.45
2019-04-06T19:44:45.263Z,31.30
2019-04-06T19:49:50.623Z,35.60
2019-04-06T19:54:55.721Z,36.83
2019-04-06T20:00:01.096Z,30.00
2019-04-06T20:05:08.380Z,24.90
2019-04-06T20:10:13.903Z,20.62
2019-04-06T20:15:19.791Z,30.37
2019-04-06T20:20:24.911Z,27.17
2019-04-06T20:25:29.953Z,31.48
2019-04-06T20:30:34.602Z,32.13
2019-04-06T20:35:39.546Z,36.40
2019-04-06T20:40:44.695Z,32.10
2019-04-06T20:45:50.050Z,32.73
2019-04-06T20:50:55.116Z,44.15
2019-04-06T20:56:00.666Z,35.63
2019-04-06T21:01:06.827Z,35.40
2019-04-06T21:06:12.108Z,30.82
2019-04-06T21:11:17.957Z,30.92
2019-04-06T21:16:22.807Z,34.88
2019-04-06T21:21:27.948Z,28.80
2019-04-06T21:26:32.688Z,31.52
2019-04-06T21:31:37.718Z,35.03
2019-04-06T21:36:42.692Z,39.10
2019-04-06T21:41:47.837Z,31.12
2019-04-06T21:46:52.757Z,25.35
2019-04-06T21:51:57.628Z,29.25
2019-04-06T21:57:02.787Z,26.35
2019-04-06T22:02:08.114Z,26.45
2019-04-06T22:07:13.000Z,34.38
2019-04-06T22:12:17.807Z,30.20
2019-04-06T22:17:23.236Z,35.98
2019-04-06T22:22:28.310Z,26.93
2019-04-06T22:27:34.592Z,32.00
2019-04-06T22:32:40.274Z,35.60
2019-04-06T22:37:45.123Z,36.75
2019-04-06T22:42:50.359Z,34.15
2019-04-06T22:47:55.913Z,33.63
2019-04-06T22:53:01.905Z,30.77
2019-04-06T22:58:06.729Z,29.20
2019-04-06T23:03:28.554Z,36.50
2019-04-06T23:08:33.948Z,30.68
2019-04-06T23:13:38.667Z,31.30
2019-04-06T23:18:44.359Z,30.05
2019-04-06T23:23:50.190Z,30.40
2019-04-06T23:28:55.375Z,33.05
2019-04-06T23:34:00.120Z,31.37
2019-04-06T23:39:07.057Z,32.93
2019-04-06T23:44:11.831Z,30.35
2019-04-06T23:49:16.845Z,31.40
2019-04-06T23:54:21.723Z,37.63
2019-04-06T23:59:27.051Z,31.45
